Time;durP1;ratioP1;P1;durP2;ratioP2;P2;SDS_P1;SDS_P2;PMS_P1;PMS_P2;Temp;Humidity;BMP_temperature;BMP_pressure;BME280_temperature;BME280_humidity;BME280_pressure;Samples;Min_cycle;Max_cycle;Signal;HPM_P1;HPM_P2
2024/01/20 00:00:32;;;;;;;2.47;2.13;;;1.20;99.90;;;;;;4974809;28;20038;-73
2024/01/20 00:02:58;;;;;;;3.92;2.40;;;1.20;99.90;;;;;;4975246;28;20041;-73
2024/01/20 00:05:24;;;;;;;3.65;2.47;;;1.20;99.90;;;;;;4959081;28;20049;-72
2024/01/20 00:07:49;;;;;;;3.33;1.90;;;1.10;99.90;;;;;;4984573;28;20489;-73
2024/01/20 00:10:15;;;;;;;3.10;1.92;;;1.10;99.90;;;;;;4961841;28;20050;-73
2024/01/20 00:12:42;;;;;;;5.28;2.15;;;1.00;99.90;;;;;;4984636;28;20509;-72
2024/01/20 00:15:09;;;;;;;2.83;2.30;;;1.00;99.90;;;;;;4980777;28;20034;-73
2024/01/20 00:17:38;;;;;;;5.45;3.13;;;1.00;99.90;;;;;;4974555;28;20050;-73
2024/01/20 00:20:05;;;;;;;16.13;4.05;;;1.00;99.90;;;;;;4975190;28;20478;-72
2024/01/20 00:22:31;;;;;;;4.45;2.25;;;1.00;99.90;;;;;;4975072;28;20046;-73
2024/01/20 00:24:59;;;;;;;5.63;2.25;;;1.00;99.90;;;;;;4979541;28;20053;-73
2024/01/20 00:27:25;;;;;;;6.60;2.53;;;1.00;99.90;;;;;;4967080;28;20053;-72
2024/01/20 00:29:52;;;;;;;3.40;2.05;;;0.90;99.90;;;;;;4982000;28;20117;-73
2024/01/20 00:32:18;;;;;;;3.22;2.28;;;0.90;99.90;;;;;;4974451;28;20034;-73
2024/01/20 00:34:43;;;;;;;2.65;2.17;;;1.00;99.90;;;;;;4974768;28;20097;-72
2024/01/20 00:37:09;;;;;;;6.82;2.53;;;1.00;99.90;;;;;;4985874;28;20502;-73
2024/01/20 00:39:36;;;;;;;5.97;2.80;;;1.10;99.90;;;;;;4981547;28;20084;-73
2024/01/20 00:42:02;;;;;;;5.13;3.05;;;1.10;99.90;;;;;;4978224;28;20038;-72
2024/01/20 00:44:27;;;;;;;3.42;1.90;;;1.10;99.90;;;;;;4978501;28;20068;-73
2024/01/20 00:46:53;;;;;;;5.57;3.42;;;1.10;99.90;;;;;;4981887;28;20121;-73
2024/01/20 00:49:19;;;;;;;7.45;3.58;;;1.20;99.90;;;;;;4978760;28;20050;-73
2024/01/20 00:51:45;;;;;;;7.40;3.13;;;1.20;99.90;;;;;;4970341;28;20037;-72
2024/01/20 00:54:10;;;;;;;7.60;3.17;;;1.20;99.90;;;;;;4980357;28;20069;-73
2024/01/20 00:56:36;;;;;;;2.30;2.08;;;1.20;99.90;;;;;;4978370;28;20121;-73
2024/01/20 00:59:02;;;;;;;6.32;3.50;;;1.20;99.90;;;;;;4962336;28;20046;-72
2024/01/20 01:01:28;;;;;;;8.10;3.72;;;1.20;99.90;;;;;;4975264;28;20042;-73
2024/01/20 01:03:54;;;;;;;3.90;3.13;;;1.20;99.90;;;;;;4974766;28;20042;-72
2024/01/20 01:06:19;;;;;;;17.00;3.78;;;1.30;99.90;;;;;;4967666;28;20048;-73
2024/01/20 01:08:45;;;;;;;6.93;4.18;;;1.30;99.90;;;;;;4981079;28;20055;-73
2024/01/20 01:11:11;;;;;;;4.85;3.35;;;1.30;99.90;;;;;;4974253;28;20038;-72
2024/01/20 01:13:39;;;;;;;8.10;3.13;;;1.20;99.90;;;;;;4978786;28;20038;-72
2024/01/20 01:16:05;;;;;;;5.22;3.53;;;1.20;99.90;;;;;;4968882;28;20085;-72
2024/01/20 01:18:32;;;;;;;5.28;3.33;;;1.20;99.90;;;;;;4977953;28;20130;-73
2024/01/20 01:20:58;;;;;;;11.73;4.78;;;1.20;99.90;;;;;;4977891;28;20038;-73
2024/01/20 01:23:24;;;;;;;15.20;3.80;;;1.20;99.90;;;;;;4961828;28;20092;-73
2024/01/20 01:25:50;;;;;;;5.57;3.10;;;1.20;99.90;;;;;;4975024;28;20074;-73
2024/01/20 01:28:15;;;;;;;6.80;4.10;;;1.20;99.90;;;;;;4968507;28;20045;-73
2024/01/20 01:30:41;;;;;;;7.53;4.30;;;1.20;99.90;;;;;;4976601;28;20467;-73
2024/01/20 01:33:07;;;;;;;9.50;3.83;;;1.10;99.90;;;;;;4974009;28;20046;-73
2024/01/20 01:35:33;;;;;;;15.88;4.57;;;1.10;99.90;;;;;;4983581;28;20038;-73
2024/01/20 01:37:58;;;;;;;11.32;5.00;;;1.10;99.90;;;;;;4975046;28;20026;-73
2024/01/20 01:40:25;;;;;;;4.80;3.50;;;1.10;99.90;;;;;;4958021;28;20435;-73
2024/01/20 01:42:57;;;;;;;7.75;4.38;;;1.10;99.90;;;;;;4978178;28;20081;-73
2024/01/20 01:45:24;;;;;;;5.65;3.80;;;1.10;99.90;;;;;;4978610;28;20053;-73
2024/01/20 01:47:51;;;;;;;6.03;3.97;;;1.10;99.90;;;;;;4985677;28;20050;-73
2024/01/20 01:50:18;;;;;;;10.85;3.78;;;1.10;99.90;;;;;;4961265;28;20085;-73
2024/01/20 01:52:47;;;;;;;5.95;3.63;;;1.10;99.90;;;;;;4981262;28;20038;-72
2024/01/20 01:55:15;;;;;;;5.28;3.70;;;1.20;99.90;;;;;;4978633;28;20109;-73
2024/01/20 01:57:42;;;;;;;8.57;4.55;;;1.10;99.90;;;;;;4981456;28;20450;-73
2024/01/20 02:00:09;;;;;;;10.00;3.58;;;1.10;99.90;;;;;;4981550;28;20045;-72
2024/01/20 02:02:35;;;;;;;6.30;3.72;;;1.20;99.90;;;;;;4980500;28;20044;-73
2024/01/20 02:05:01;;;;;;;6.50;4.13;;;1.10;99.90;;;;;;4978418;28;20121;-73
2024/01/20 02:07:43;;;;;;;15.48;4.00;;;1.10;99.90;;;;;;4987264;28;20637;-72
2024/01/20 02:10:11;;;;;;;5.55;4.10;;;1.10;99.90;;;;;;4976875;28;20483;-73
2024/01/20 02:12:38;;;;;;;10.30;3.72;;;1.10;99.90;;;;;;4961126;28;20490;-73
2024/01/20 02:15:05;;;;;;;14.05;4.40;;;1.10;99.90;;;;;;4976719;28;20518;-73
2024/01/20 02:17:31;;;;;;;7.20;5.43;;;1.10;99.90;;;;;;4976829;28;20050;-72
2024/01/20 02:19:57;;;;;;;9.60;4.68;;;1.10;99.90;;;;;;4977630;28;20566;-73
2024/01/20 02:22:23;;;;;;;10.38;5.20;;;1.10;99.90;;;;;;4976556;28;20069;-73
2024/01/20 02:24:50;;;;;;;7.80;5.82;;;1.10;99.90;;;;;;4977834;28;20050;-72
2024/01/20 02:27:17;;;;;;;10.43;5.93;;;1.10;99.90;;;;;;4986071;28;20062;-73
2024/01/20 02:29:43;;;;;;;8.07;5.05;;;1.10;99.90;;;;;;4966359;28;20045;-73
2024/01/20 02:32:09;;;;;;;9.52;5.40;;;1.00;99.90;;;;;;4978150;28;20117;-73
2024/01/20 02:34:37;;;;;;;10.40;5.35;;;1.00;99.90;;;;;;4977426;28;20046;-73
2024/01/20 02:37:04;;;;;;;6.90;4.53;;;1.00;99.90;;;;;;4964458;28;20046;-73
2024/01/20 02:39:31;;;;;;;10.23;5.68;;;1.00;99.90;;;;;;4978775;28;20066;-73
2024/01/20 02:41:56;;;;;;;7.78;4.95;;;1.00;99.90;;;;;;4982340;28;20045;-73
2024/01/20 02:44:22;;;;;;;10.63;5.03;;;0.90;99.90;;;;;;4976432;28;20042;-74
2024/01/20 02:46:48;;;;;;;6.75;4.30;;;0.90;99.90;;;;;;4984686;28;20053;-73
2024/01/20 02:49:14;;;;;;;7.18;4.05;;;0.90;99.90;;;;;;4988657;28;20046;-73
2024/01/20 02:51:39;;;;;;;9.05;4.80;;;0.90;99.90;;;;;;4976357;28;20045;-73
2024/01/20 02:54:05;;;;;;;11.93;5.82;;;0.90;99.90;;;;;;4980008;28;20534;-73
2024/01/20 02:56:31;;;;;;;7.38;4.80;;;0.90;99.90;;;;;;4976126;28;20042;-73
2024/01/20 02:58:57;;;;;;;14.32;5.32;;;0.90;99.90;;;;;;4981087;28;20082;-73
2024/01/20 03:01:22;;;;;;;10.82;6.25;;;0.90;99.90;;;;;;4977375;28;20049;-73
2024/01/20 03:03:48;;;;;;;14.50;5.72;;;0.90;99.90;;;;;;4978918;28;20038;-73
2024/01/20 03:06:14;;;;;;;10.27;5.50;;;0.90;99.90;;;;;;4975743;28;20038;-73
2024/01/20 03:08:40;;;;;;;13.75;6.82;;;0.90;99.90;;;;;;4975886;28;20038;-73
2024/01/20 03:11:05;;;;;;;10.35;5.95;;;1.00;99.90;;;;;;4984010;28;20042;-73
2024/01/20 03:13:31;;;;;;;9.20;5.47;;;1.00;99.90;;;;;;4984871;28;20042;-73
2024/01/20 03:15:57;;;;;;;8.50;5.18;;;1.00;99.90;;;;;;4977651;28;20467;-72
2024/01/20 03:18:23;;;;;;;12.25;7.07;;;1.00;99.90;;;;;;4975280;28;20101;-73
2024/01/20 03:20:49;;;;;;;8.00;4.30;;;1.00;99.90;;;;;;4959498;28;20118;-73
2024/01/20 03:23:15;;;;;;;10.55;6.05;;;1.00;99.90;;;;;;4960384;28;20045;-73
2024/01/20 03:25:41;;;;;;;13.30;6.00;;;1.00;99.90;;;;;;4976499;28;20034;-73
2024/01/20 03:28:06;;;;;;;10.02;4.97;;;1.00;99.90;;;;;;4971390;28;20048;-73
2024/01/20 03:30:32;;;;;;;11.88;6.22;;;1.00;99.90;;;;;;4978229;28;20043;-73
2024/01/20 03:32:58;;;;;;;6.50;3.88;;;1.00;99.90;;;;;;4982175;28;20039;-73
2024/01/20 03:35:24;;;;;;;9.00;6.03;;;1.10;99.90;;;;;;4979669;28;20466;-73
2024/01/20 03:37:50;;;;;;;15.18;5.75;;;1.10;99.90;;;;;;4975436;28;20039;-73
2024/01/20 03:40:16;;;;;;;11.70;5.75;;;1.10;99.90;;;;;;4983285;28;20053;-73
2024/01/20 03:42:41;;;;;;;10.15;5.65;;;1.00;99.90;;;;;;4979437;28;20057;-73
2024/01/20 03:45:08;;;;;;;13.27;4.95;;;1.00;99.90;;;;;;4978003;28;20046;-73
2024/01/20 03:47:33;;;;;;;11.32;6.53;;;1.00;99.90;;;;;;4986109;28;20042;-73
2024/01/20 03:49:59;;;;;;;16.73;6.88;;;0.90;99.90;;;;;;4978178;28;20394;-73
2024/01/20 03:52:25;;;;;;;8.45;5.10;;;0.90;99.90;;;;;;4977719;28;20038;-73
2024/01/20 03:54:51;;;;;;;7.53;3.97;;;0.90;99.90;;;;;;4961796;28;20546;-73
2024/01/20 03:57:17;;;;;;;10.60;5.45;;;0.90;99.90;;;;;;4959470;28;20372;-73
2024/01/20 03:59:43;;;;;;;9.13;5.13;;;0.80;99.90;;;;;;4979796;28;20054;-73
2024/01/20 04:02:08;;;;;;;9.85;5.78;;;0.70;99.90;;;;;;4958962;28;20418;-73
2024/01/20 04:04:37;;;;;;;8.27;4.43;;;0.70;99.90;;;;;;4983035;28;20050;-73
2024/01/20 04:07:03;;;;;;;6.38;4.13;;;0.60;99.90;;;;;;4979113;28;20423;-71
2024/01/20 04:09:29;;;;;;;7.25;5.38;;;0.50;99.90;;;;;;4979002;28;20129;-72
2024/01/20 04:11:54;;;;;;;12.40;5.50;;;0.40;99.90;;;;;;4978837;28;20136;-72
2024/01/20 04:14:20;;;;;;;6.38;4.72;;;0.40;99.90;;;;;;4985816;28;20213;-72
2024/01/20 04:16:46;;;;;;;14.50;6.38;;;0.30;99.90;;;;;;4980130;28;20475;-72
2024/01/20 04:19:12;;;;;;;12.13;6.15;;;0.30;99.90;;;;;;4974552;28;20455;-72
2024/01/20 04:21:39;;;;;;;11.43;5.63;;;0.30;99.90;;;;;;4974764;28;20038;-72
2024/01/20 04:24:05;;;;;;;9.98;3.85;;;0.20;99.90;;;;;;4976671;28;20046;-72
2024/01/20 04:26:31;;;;;;;8.88;5.00;;;0.20;99.90;;;;;;4978690;28;20502;-72
2024/01/20 04:28:57;;;;;;;7.75;5.20;;;0.20;99.90;;;;;;4986879;28;20077;-73
2024/01/20 04:31:23;;;;;;;11.20;4.15;;;0.20;99.90;;;;;;4966462;28;20081;-73
2024/01/20 04:33:48;;;;;;;16.00;6.32;;;0.20;99.90;;;;;;4966389;28;20099;-73
2024/01/20 04:36:14;;;;;;;9.77;5.93;;;0.10;99.90;;;;;;4977623;28;20057;-73
2024/01/20 04:38:40;;;;;;;10.88;5.40;;;0.10;99.90;;;;;;4976822;28;20398;-73
2024/01/20 04:41:06;;;;;;;9.15;5.20;;;0.10;99.90;;;;;;4979754;28;20039;-73
2024/01/20 04:43:32;;;;;;;13.02;4.57;;;0.10;99.90;;;;;;4958023;28;20077;-73
2024/01/20 04:45:57;;;;;;;14.75;6.75;;;0.10;99.90;;;;;;4962772;28;20046;-73
2024/01/20 04:48:23;;;;;;;11.15;6.05;;;0.10;99.90;;;;;;4981398;28;20096;-73
2024/01/20 04:50:49;;;;;;;9.00;5.47;;;0.10;99.90;;;;;;4979700;28;20036;-73
2024/01/20 04:53:15;;;;;;;10.73;5.72;;;0.00;99.90;;;;;;4981421;28;20091;-73
2024/01/20 04:55:40;;;;;;;9.13;5.50;;;0.00;99.90;;;;;;4959440;28;20046;-73
2024/01/20 04:58:06;;;;;;;12.00;5.25;;;0.00;99.90;;;;;;4974995;28;20049;-73
2024/01/20 05:00:35;;;;;;;11.88;4.40;;;0.00;99.90;;;;;;4975705;28;20150;-73
2024/01/20 05:03:01;;;;;;;8.45;5.15;;;-0.10;99.90;;;;;;4974413;28;20046;-73
2024/01/20 05:05:26;;;;;;;17.77;7.20;;;-0.10;99.90;;;;;;4961908;28;20121;-73
2024/01/20 05:07:52;;;;;;;9.30;6.40;;;-0.10;99.90;;;;;;4980942;28;20418;-73
2024/01/20 05:10:19;;;;;;;13.85;5.80;;;-0.20;99.90;;;;;;4974996;28;20053;-74
2024/01/20 05:12:44;;;;;;;9.75;6.00;;;-0.20;99.90;;;;;;4986001;28;20034;-74
2024/01/20 05:15:13;;;;;;;9.23;6.07;;;-0.20;99.90;;;;;;4976388;28;20117;-73
2024/01/20 05:17:39;;;;;;;12.82;6.70;;;-0.20;99.90;;;;;;4977454;28;20138;-73
2024/01/20 05:20:05;;;;;;;16.85;9.45;;;-0.20;99.90;;;;;;4958338;28;20137;-73
2024/01/20 05:22:32;;;;;;;8.52;5.90;;;-0.20;99.90;;;;;;4982241;28;20120;-73
2024/01/20 05:24:57;;;;;;;11.73;5.20;;;-0.20;99.90;;;;;;4977971;28;20042;-73
2024/01/20 05:27:23;;;;;;;8.93;5.22;;;-0.20;99.90;;;;;;4984799;28;20491;-74
2024/01/20 05:29:49;;;;;;;15.30;7.30;;;-0.20;99.90;;;;;;4985149;28;20038;-74
2024/01/20 05:32:15;;;;;;;13.38;6.50;;;-0.20;99.90;;;;;;4981027;28;20131;-74
2024/01/20 05:34:41;;;;;;;8.75;5.25;;;-0.20;99.90;;;;;;4981842;28;20034;-74
2024/01/20 05:37:07;;;;;;;16.75;6.32;;;-0.20;99.90;;;;;;4981271;28;20423;-74
2024/01/20 05:39:34;;;;;;;15.68;5.45;;;-0.20;99.90;;;;;;4980540;28;20109;-74
2024/01/20 05:42:00;;;;;;;8.02;5.82;;;-0.20;99.90;;;;;;4980163;28;20474;-74
2024/01/20 05:44:27;;;;;;;10.10;6.38;;;-0.20;99.90;;;;;;4985780;28;20506;-74
2024/01/20 05:46:52;;;;;;;10.88;5.65;;;-0.20;99.90;;;;;;4984904;28;20034;-74
2024/01/20 05:49:18;;;;;;;11.55;5.75;;;-0.30;99.90;;;;;;4981469;28;20042;-74
2024/01/20 05:51:44;;;;;;;10.38;6.65;;;-0.30;99.90;;;;;;4961910;28;20141;-73
2024/01/20 05:54:10;;;;;;;13.32;6.45;;;-0.30;99.90;;;;;;4968143;28;20513;-74
2024/01/20 05:56:36;;;;;;;11.10;5.30;;;-0.30;99.90;;;;;;4968007;28;20042;-73
2024/01/20 05:59:02;;;;;;;8.73;4.88;;;-0.30;99.90;;;;;;4980029;28;20562;-74
2024/01/20 06:01:27;;;;;;;12.80;6.28;;;-0.30;99.90;;;;;;4981065;28;20117;-74
2024/01/20 06:03:53;;;;;;;11.48;3.50;;;-0.30;99.90;;;;;;4981273;28;20066;-74
2024/01/20 06:06:19;;;;;;;6.57;5.00;;;-0.30;99.90;;;;;;4981134;28;20036;-73
2024/01/20 06:08:45;;;;;;;14.30;5.78;;;-0.30;99.90;;;;;;4964854;28;20046;-74
2024/01/20 06:11:11;;;;;;;19.88;7.57;;;-0.40;99.90;;;;;;4985534;28;20034;-74
2024/01/20 06:13:37;;;;;;;13.15;6.00;;;-0.40;99.90;;;;;;4977271;28;20517;-73
2024/01/20 06:16:07;;;;;;;23.73;7.18;;;-0.40;99.90;;;;;;4978261;28;20050;-74
2024/01/20 06:18:33;;;;;;;17.85;7.18;;;-0.40;99.90;;;;;;4978837;28;20054;-74
2024/01/20 06:21:01;;;;;;;13.93;6.47;;;-0.50;99.90;;;;;;4962703;28;20034;-74
2024/01/20 06:23:28;;;;;;;15.15;6.78;;;-0.50;99.90;;;;;;4966608;28;20474;-74
2024/01/20 06:25:54;;;;;;;16.27;6.30;;;-0.60;99.90;;;;;;4992860;28;20042;-74
2024/01/20 06:28:21;;;;;;;17.73;6.85;;;-0.60;99.90;;;;;;4982217;28;20097;-74
2024/01/20 06:30:49;;;;;;;11.30;5.07;;;-0.60;99.90;;;;;;4976616;28;20056;-74
2024/01/20 06:33:16;;;;;;;8.23;5.65;;;-0.60;99.90;;;;;;4963099;28;20550;-74
2024/01/20 06:35:42;;;;;;;8.10;4.40;;;-0.60;99.90;;;;;;4979321;28;20126;-74
2024/01/20 06:38:07;;;;;;;15.23;6.72;;;-0.70;99.90;;;;;;4976576;28;20125;-74
2024/01/20 06:40:33;;;;;;;10.10;6.25;;;-0.70;99.90;;;;;;4984855;28;20038;-74
2024/01/20 06:42:59;;;;;;;11.98;6.38;;;-0.60;99.90;;;;;;4980482;28;20459;-74
2024/01/20 06:45:25;;;;;;;16.15;5.03;;;-0.60;99.90;;;;;;4971701;28;20038;-74
2024/01/20 06:47:51;;;;;;;8.50;6.47;;;-0.60;99.90;;;;;;4987108;28;20045;-74
2024/01/20 06:50:16;;;;;;;7.72;4.80;;;-0.60;99.90;;;;;;4988405;28;20108;-73
2024/01/20 06:52:42;;;;;;;8.95;5.85;;;-0.60;99.90;;;;;;4986354;28;20045;-74
2024/01/20 06:55:08;;;;;;;11.75;5.07;;;-0.60;99.90;;;;;;4983735;28;20041;-74
2024/01/20 06:57:34;;;;;;;16.23;6.68;;;-0.60;99.90;;;;;;4983722;28;20117;-74
2024/01/20 07:00:00;;;;;;;16.25;6.20;;;-0.60;99.90;;;;;;4981899;28;20128;-74
2024/01/20 07:02:27;;;;;;;14.10;6.47;;;-0.60;99.90;;;;;;4980224;28;20092;-74
2024/01/20 07:04:53;;;;;;;8.40;5.43;;;-0.50;99.90;;;;;;4984064;28;20038;-74
2024/01/20 07:07:18;;;;;;;13.20;6.85;;;-0.50;99.90;;;;;;4983510;28;20101;-74
2024/01/20 07:09:44;;;;;;;11.32;5.60;;;-0.50;99.90;;;;;;4990144;28;20502;-74
2024/01/20 07:12:10;;;;;;;9.73;4.13;;;-0.50;99.90;;;;;;4986650;28;20038;-74
2024/01/20 07:14:36;;;;;;;10.55;5.70;;;-0.40;99.90;;;;;;4979306;28;20077;-74
2024/01/20 07:17:05;;;;;;;6.38;3.05;;;-0.40;99.90;;;;;;4985518;28;20053;-74
2024/01/20 07:19:31;;;;;;;9.35;4.88;;;-0.40;99.90;;;;;;4980732;28;20141;-74
2024/01/20 07:21:57;;;;;;;11.45;6.05;;;-0.40;99.90;;;;;;4976521;28;20126;-74
2024/01/20 07:24:22;;;;;;;8.43;3.33;;;-0.40;99.90;;;;;;4996786;28;20050;-74
2024/01/20 07:26:48;;;;;;;10.25;6.00;;;-0.50;99.90;;;;;;5001791;28;20048;-74
2024/01/20 07:29:14;;;;;;;16.17;7.10;;;-0.50;99.90;;;;;;4968956;28;20104;-74
2024/01/20 07:31:40;;;;;;;13.70;5.30;;;-0.50;99.90;;;;;;4989470;28;20041;-74
2024/01/20 07:34:06;;;;;;;15.90;5.82;;;-0.50;99.90;;;;;;4990498;28;20042;-74
2024/01/20 07:36:32;;;;;;;11.30;5.95;;;-0.50;99.90;;;;;;4975589;28;20033;-74
2024/01/20 07:38:57;;;;;;;20.75;7.53;;;-0.40;99.90;;;;;;4980039;28;20084;-74
2024/01/20 07:41:23;;;;;;;14.20;6.65;;;-0.40;99.90;;;;;;4991057;28;20045;-74
2024/01/20 07:43:49;;;;;;;12.43;7.88;;;-0.40;99.90;;;;;;4986624;28;20042;-74
2024/01/20 07:46:15;;;;;;;13.38;6.00;;;-0.30;99.90;;;;;;4981773;28;20053;-75
2024/01/20 07:48:42;;;;;;;16.25;6.80;;;-0.20;99.90;;;;;;4980681;28;20113;-74
2024/01/20 07:51:08;;;;;;;10.77;6.07;;;-0.20;99.90;;;;;;4963313;28;20044;-75
2024/01/20 07:53:34;;;;;;;11.38;6.03;;;-0.20;99.90;;;;;;4975497;28;20046;-75
2024/01/20 07:56:00;;;;;;;11.57;5.57;;;-0.10;99.90;;;;;;4987534;28;20038;-74
2024/01/20 07:58:26;;;;;;;9.15;5.35;;;-0.10;99.90;;;;;;4984913;28;20509;-75
2024/01/20 08:00:51;;;;;;;16.30;6.10;;;0.00;99.90;;;;;;4978592;28;20042;-75
2024/01/20 08:03:17;;;;;;;9.75;5.20;;;0.00;99.90;;;;;;4980670;28;20049;-75
2024/01/20 08:05:45;;;;;;;16.67;8.07;;;0.10;99.90;;;;;;4995690;28;20037;-74
2024/01/20 08:08:11;;;;;;;17.17;7.40;;;0.10;99.90;;;;;;4986449;28;20050;-74
2024/01/20 08:10:37;;;;;;;11.02;6.22;;;0.20;99.90;;;;;;4975170;28;20038;-74
2024/01/20 08:13:03;;;;;;;10.68;5.57;;;0.20;99.90;;;;;;4978547;28;20065;-74
2024/01/20 08:15:28;;;;;;;14.40;6.55;;;0.30;99.90;;;;;;4966454;28;20042;-75
2024/01/20 08:17:54;;;;;;;15.05;7.43;;;0.40;99.90;;;;;;4987264;28;20054;-74
2024/01/20 08:20:20;;;;;;;12.63;6.28;;;0.50;99.90;;;;;;4975360;28;20040;-74
2024/01/20 08:22:46;;;;;;;22.08;6.05;;;0.60;99.90;;;;;;4979182;28;20057;-74
2024/01/20 08:25:13;;;;;;;18.95;8.07;;;0.70;99.90;;;;;;4984643;28;20069;-74
2024/01/20 08:27:39;;;;;;;16.15;7.28;;;0.70;99.90;;;;;;4983770;28;20046;-72
2024/01/20 08:30:05;;;;;;;13.05;6.93;;;0.80;99.90;;;;;;4979865;28;20445;-73
2024/01/20 08:32:31;;;;;;;15.23;7.75;;;0.90;99.90;;;;;;4984973;28;20364;-74
2024/01/20 08:34:57;;;;;;;15.27;5.00;;;0.90;99.90;;;;;;4974725;28;20113;-73
2024/01/20 08:37:22;;;;;;;17.75;6.82;;;0.90;99.90;;;;;;4982753;28;20438;-73
2024/01/20 08:39:48;;;;;;;18.65;6.95;;;0.90;99.90;;;;;;4978937;28;20042;-73
2024/01/20 08:42:14;;;;;;;9.77;5.70;;;0.80;99.90;;;;;;4958686;28;20049;-73
2024/01/20 08:44:40;;;;;;;14.75;8.05;;;0.80;99.90;;;;;;4962751;28;20041;-73
2024/01/20 08:47:06;;;;;;;18.55;7.93;;;0.80;99.90;;;;;;4974770;28;20077;-73
2024/01/20 08:49:31;;;;;;;6.97;3.92;;;0.80;99.90;;;;;;4983932;28;20070;-73
2024/01/20 08:51:57;;;;;;;9.93;5.53;;;0.80;99.90;;;;;;4975271;28;20042;-73
2024/01/20 08:54:23;;;;;;;18.13;7.70;;;0.70;99.90;;;;;;4978259;28;20503;-73
2024/01/20 08:56:49;;;;;;;19.15;7.95;;;0.80;99.90;;;;;;4974535;28;20043;-73
2024/01/20 08:59:15;;;;;;;16.98;6.07;;;0.70;99.90;;;;;;4975761;28;20059;-73
2024/01/20 09:01:41;;;;;;;23.02;9.18;;;0.80;99.90;;;;;;4983168;28;20056;-73
2024/01/20 09:04:07;;;;;;;13.95;7.00;;;0.80;99.90;;;;;;4980572;28;20382;-73
2024/01/20 09:06:32;;;;;;;13.18;6.18;;;0.80;99.90;;;;;;4978295;28;20045;-73
2024/01/20 09:08:58;;;;;;;10.32;6.22;;;0.80;99.90;;;;;;4965877;28;20042;-73
2024/01/20 09:11:24;;;;;;;12.70;6.28;;;0.80;99.90;;;;;;4988692;28;20494;-73
2024/01/20 09:13:50;;;;;;;15.82;6.40;;;0.80;99.90;;;;;;4984316;28;20038;-73
2024/01/20 09:16:17;;;;;;;17.27;6.43;;;0.80;99.90;;;;;;4984071;28;20059;-73
2024/01/20 09:18:43;;;;;;;22.67;7.68;;;0.80;99.90;;;;;;4987137;28;20126;-72
2024/01/20 09:21:11;;;;;;;15.65;5.85;;;0.90;99.90;;;;;;4980638;28;20113;-73
2024/01/20 09:23:37;;;;;;;12.60;5.55;;;0.90;99.90;;;;;;4982727;28;20070;-72
2024/01/20 09:26:04;;;;;;;10.02;5.80;;;0.90;99.90;;;;;;5001014;28;20042;-72
2024/01/20 09:28:29;;;;;;;21.52;6.80;;;1.00;99.90;;;;;;4972808;28;20048;-72
2024/01/20 09:30:55;;;;;;;20.20;7.97;;;1.00;99.90;;;;;;4964245;28;20054;-73
2024/01/20 09:33:21;;;;;;;13.65;6.75;;;1.00;99.90;;;;;;4963258;28;20042;-72
2024/01/20 09:35:47;;;;;;;16.55;5.45;;;1.10;99.90;;;;;;4987741;28;20129;-72
2024/01/20 09:38:13;;;;;;;17.55;7.30;;;1.10;99.90;;;;;;4981152;28;20041;-72
2024/01/20 09:40:38;;;;;;;14.60;6.25;;;1.10;99.90;;;;;;4977755;28;20133;-73
2024/01/20 09:43:04;;;;;;;11.27;6.35;;;1.10;99.90;;;;;;4982030;28;20114;-72
2024/01/20 09:45:31;;;;;;;12.73;6.63;;;1.20;99.90;;;;;;4967741;28;20050;-72
2024/01/20 09:47:57;;;;;;;15.85;6.95;;;1.20;99.90;;;;;;4980308;28;20336;-72
2024/01/20 09:50:23;;;;;;;16.98;7.07;;;1.20;99.90;;;;;;4979092;28;20081;-72
2024/01/20 09:52:58;;;;;;;8.88;5.78;;;1.20;99.90;;;;;;4982967;28;20077;-72
2024/01/20 09:55:26;;;;;;;13.07;5.25;;;1.30;99.90;;;;;;4981614;28;20471;-72
2024/01/20 09:57:52;;;;;;;13.27;6.30;;;1.20;99.90;;;;;;4983918;28;20073;-71
2024/01/20 10:00:21;;;;;;;17.60;6.57;;;1.30;99.90;;;;;;4982708;28;20073;-72
2024/01/20 10:02:47;;;;;;;16.92;6.90;;;1.30;99.90;;;;;;4983615;28;20152;-72
2024/01/20 10:05:14;;;;;;;17.30;6.40;;;1.20;99.90;;;;;;4977523;28;20125;-72
2024/01/20 10:07:41;;;;;;;14.73;6.07;;;1.30;99.90;;;;;;4982628;28;20069;-72
2024/01/20 10:10:09;;;;;;;15.77;6.60;;;1.30;99.90;;;;;;4981342;28;20078;-72
2024/01/20 10:12:36;;;;;;;18.40;6.18;;;1.30;99.90;;;;;;4982491;28;20042;-72
2024/01/20 10:15:03;;;;;;;17.00;6.07;;;1.40;99.90;;;;;;4979987;28;20054;-73
2024/01/20 10:17:29;;;;;;;16.13;6.05;;;1.50;99.90;;;;;;4980993;28;20058;-73
2024/01/20 10:19:55;;;;;;;9.35;4.15;;;1.50;99.90;;;;;;4978011;28;20104;-73
2024/01/20 10:22:20;;;;;;;11.32;4.20;;;1.50;99.90;;;;;;4981298;28;20054;-73
2024/01/20 10:24:47;;;;;;;13.27;6.10;;;1.50;99.90;;;;;;4981168;28;20049;-73
2024/01/20 10:27:16;;;;;;;12.25;6.70;;;1.60;99.90;;;;;;4983964;28;20422;-73
2024/01/20 10:29:42;;;;;;;11.20;5.93;;;1.60;99.90;;;;;;4983965;28;20173;-73
2024/01/20 10:32:08;;;;;;;18.20;7.45;;;1.50;99.90;;;;;;4988114;28;20105;-73
2024/01/20 10:34:34;;;;;;;12.63;6.82;;;1.60;99.90;;;;;;4984906;28;20398;-72
2024/01/20 10:37:05;;;;;;;18.73;7.53;;;1.60;99.90;;;;;;4978744;28;20038;-73
2024/01/20 10:39:33;;;;;;;12.45;5.50;;;1.60;99.90;;;;;;4971919;28;20485;-75
2024/01/20 10:42:00;;;;;;;20.08;6.80;;;1.50;99.90;;;;;;4981765;28;20121;-74
2024/01/20 10:44:31;;;;;;;13.18;6.38;;;1.50;99.90;;;;;;4980638;28;20062;-73
2024/01/20 10:47:04;;;;;;;12.30;6.20;;;1.50;99.90;;;;;;4976342;28;20052;-72
2024/01/20 10:49:31;;;;;;;15.27;7.28;;;1.50;99.90;;;;;;4976347;28;20050;-73
2024/01/20 10:51:57;;;;;;;20.00;7.10;;;1.50;99.90;;;;;;4988751;28;20500;-72
2024/01/20 10:54:23;;;;;;;18.80;5.78;;;1.50;99.90;;;;;;4980620;28;20046;-73
2024/01/20 10:56:49;;;;;;;14.52;7.43;;;1.60;99.90;;;;;;4962157;28;20648;-72
2024/01/20 10:59:17;;;;;;;17.08;7.15;;;1.50;99.90;;;;;;4979593;28;20050;-71
2024/01/20 11:01:45;;;;;;;16.30;7.05;;;1.50;99.90;;;;;;4980558;28;20038;-73
2024/01/20 11:04:18;;;;;;;16.02;7.55;;;1.50;99.90;;;;;;4979761;28;20081;-72
2024/01/20 11:06:44;;;;;;;16.58;6.32;;;1.60;99.90;;;;;;4960237;28;20069;-73
2024/01/20 11:09:16;;;;;;;22.52;7.30;;;1.60;99.90;;;;;;4988974;28;20077;-72
2024/01/20 11:11:57;;;;;;;15.23;6.43;;;1.60;99.90;;;;;;4984742;28;20370;-72
2024/01/20 11:14:30;;;;;;;19.75;7.30;;;1.70;99.90;;;;;;4978542;28;20121;-71
2024/01/20 11:16:57;;;;;;;18.98;7.55;;;1.70;99.90;;;;;;4980014;28;20054;-71
2024/01/20 11:19:27;;;;;;;19.10;8.73;;;1.70;99.90;;;;;;4966231;28;20069;-71
2024/01/20 11:21:53;;;;;;;16.30;7.95;;;1.80;99.90;;;;;;4975604;28;20046;-71
2024/01/20 11:24:34;;;;;;;16.35;9.48;;;1.70;99.90;;;;;;4981497;28;20046;-71
2024/01/20 11:27:04;;;;;;;7.97;5.00;;;1.80;99.90;;;;;;4967145;28;20104;-72
2024/01/20 11:29:29;;;;;;;16.77;7.18;;;1.80;99.90;;;;;;4986309;28;20079;-72
2024/01/20 11:31:56;;;;;;;12.75;5.78;;;1.80;99.90;;;;;;4980792;28;20787;-72
2024/01/20 11:34:22;;;;;;;14.27;6.25;;;1.80;99.90;;;;;;4982649;28;20042;-72
2024/01/20 11:36:48;;;;;;;12.93;5.55;;;1.80;99.90;;;;;;4979661;28;20475;-72
2024/01/20 11:39:14;;;;;;;11.70;6.65;;;1.80;99.90;;;;;;4976916;28;20121;-72
2024/01/20 11:41:40;;;;;;;11.23;7.13;;;1.80;99.90;;;;;;4976105;28;20046;-72
2024/01/20 11:44:06;;;;;;;17.83;7.35;;;1.90;99.90;;;;;;4993171;28;20064;-73
2024/01/20 11:46:38;;;;;;;23.17;8.13;;;2.00;99.90;;;;;;4979606;28;20046;-73
2024/01/20 11:49:04;;;;;;;12.27;6.03;;;2.00;99.90;;;;;;4982662;28;20442;-72
2024/01/20 11:51:30;;;;;;;17.85;8.85;;;2.00;99.90;;;;;;4979170;28;20046;-73
2024/01/20 11:53:56;;;;;;;14.65;6.07;;;2.10;99.90;;;;;;4973954;28;20041;-72
2024/01/20 11:56:22;;;;;;;19.58;8.30;;;2.10;99.90;;;;;;4986791;28;20046;-74
2024/01/20 11:58:48;;;;;;;12.75;5.85;;;2.10;99.90;;;;;;4976773;28;20073;-73
2024/01/20 12:01:16;;;;;;;12.80;6.50;;;2.10;99.90;;;;;;4979590;28;20034;-73
2024/01/20 12:03:42;;;;;;;11.57;6.35;;;2.20;99.90;;;;;;4979925;28;20034;-73
2024/01/20 12:06:08;;;;;;;16.60;7.00;;;2.10;99.90;;;;;;4980412;28;20057;-73
2024/01/20 12:08:39;;;;;;;20.85;7.10;;;2.20;99.90;;;;;;4979333;28;20061;-73
2024/01/20 12:11:05;;;;;;;13.93;7.05;;;2.20;99.90;;;;;;4979354;28;20069;-73
2024/01/20 12:13:34;;;;;;;19.60;6.38;;;2.30;99.90;;;;;;4966646;28;20480;-73
2024/01/20 12:15:59;;;;;;;21.73;9.55;;;2.40;99.90;;;;;;4979097;28;20054;-73
2024/01/20 12:18:25;;;;;;;22.77;7.03;;;2.40;99.90;;;;;;4981742;28;20528;-74
2024/01/20 12:20:51;;;;;;;22.45;7.05;;;2.40;99.90;;;;;;4978973;28;20050;-74
2024/01/20 12:23:19;;;;;;;18.90;8.13;;;2.50;99.90;;;;;;4979563;28;20050;-74
2024/01/20 12:25:46;;;;;;;16.25;6.43;;;2.60;99.90;;;;;;4981367;28;20049;-73
2024/01/20 12:28:12;;;;;;;17.48;8.43;;;2.70;99.90;;;;;;4971710;28;20058;-74
2024/01/20 12:30:40;;;;;;;13.93;6.57;;;2.80;99.90;;;;;;4980308;28;20061;-73
2024/01/20 12:33:06;;;;;;;11.32;6.03;;;2.90;99.90;;;;;;4964321;28;20093;-73
2024/01/20 12:35:32;;;;;;;17.85;6.47;;;2.90;99.90;;;;;;4967993;28;20450;-73
2024/01/20 12:37:59;;;;;;;12.35;6.47;;;3.00;99.90;;;;;;4982639;28;20065;-74
2024/01/20 12:40:29;;;;;;;18.60;7.22;;;3.00;99.90;;;;;;4961938;28;20052;-74
2024/01/20 12:42:58;;;;;;;11.63;5.75;;;3.00;99.90;;;;;;4991528;28;20041;-73